Time;durP1;ratioP1;P1;durP2;ratioP2;P2;SDS_P1;SDS_P2;PMS_P1;PMS_P2;Temp;Humidity;BMP_temperature;BMP_pressure;BME280_temperature;BME280_humidity;BME280_pressure;Samples;Min_cycle;Max_cycle;Signal;HPM_P1;HPM_P2
2023/03/20 09:56:41;;;;;;;15.20;8.40;;;;;;;12.19;50.01;100573.44;102565;1296;607602;-70
2023/03/20 09:59:10;;;;;;;16.70;7.40;;;;;;;12.26;50.05;100567.02;105250;1270;59187;-67
2023/03/20 10:01:47;;;;;;;12.60;7.00;;;;;;;12.40;49.53;100561.79;104592;1273;59381;-65
2023/03/20 10:04:15;;;;;;;12.70;7.30;;;;;;;12.52;48.86;100555.48;104536;1265;63960;-67
2023/03/20 10:06:42;;;;;;;12.20;6.60;;;;;;;12.58;48.52;100556.58;104605;1279;60300;-68
2023/03/20 10:09:36;;;;;;;11.80;6.90;;;;;;;12.72;48.56;100556.81;104653;1269;196424;-70
2023/03/20 10:12:42;;;;;;;8.80;5.80;;;;;;;12.93;48.16;100551.27;105917;1257;59144;-68
2023/03/20 10:15:51;;;;;;;9.90;6.60;;;;;;;13.12;47.56;100545.33;105627;1257;59299;-68
2023/03/20 10:18:25;;;;;;;11.70;6.60;;;;;;;13.22;46.50;100539.94;105798;1257;65095;-70
2023/03/20 10:21:12;;;;;;;12.00;6.20;;;;;;;13.18;46.66;100540.61;105796;1261;59743;-72
2023/03/20 10:23:42;;;;;;;11.40;6.10;;;;;;;13.28;46.68;100538.00;105746;1260;65440;-71
2023/03/20 10:26:11;;;;;;;9.90;6.20;;;;;;;13.44;46.47;100539.26;105993;1260;59919;-72
2023/03/20 10:29:04;;;;;;;11.60;6.40;;;;;;;13.63;46.40;100535.91;105893;1261;59749;-71
2023/03/20 10:31:51;;;;;;;9.70;6.20;;;;;;;13.79;45.66;100533.06;105725;1263;65964;-71
2023/03/20 10:34:28;;;;;;;11.90;5.70;;;;;;;13.83;45.13;100529.04;105882;1260;59972;-70
2023/03/20 10:37:14;;;;;;;10.10;6.30;;;;;;;13.77;44.58;100527.20;105841;1257;65250;-70
2023/03/20 10:39:50;;;;;;;11.30;6.00;;;;;;;13.67;44.42;100519.98;105639;1263;59622;-70
2023/03/20 10:42:29;;;;;;;11.80;6.50;;;;;;;13.64;44.70;100514.40;105713;1261;59576;-71
2023/03/20 10:45:26;;;;;;;9.30;6.10;;;;;;;13.80;45.05;100512.28;105931;1257;65900;-72
2023/03/20 10:47:53;;;;;;;15.10;6.00;;;;;;;14.00;44.66;100513.60;105824;1256;59971;-71
2023/03/20 10:50:22;;;;;;;8.90;5.40;;;;;;;14.13;44.18;100511.52;105984;1258;65415;-70
2023/03/20 10:52:50;;;;;;;7.70;5.10;;;;;;;14.16;43.28;100507.48;105636;1263;59536;-70
2023/03/20 10:55:23;;;;;;;9.40;4.80;;;;;;;14.10;42.83;100502.41;105773;1257;59679;-70
2023/03/20 10:57:54;;;;;;;8.30;4.80;;;;;;;14.07;43.19;100500.27;105687;1261;65896;-73
2023/03/20 11:00:22;;;;;;;10.30;4.80;;;;;;;14.18;42.92;100495.31;105772;1257;59727;-72
2023/03/20 11:02:50;;;;;;;8.40;4.20;;;;;;;14.20;42.10;100496.85;105815;1256;65341;-74
2023/03/20 11:05:19;;;;;;;9.60;4.60;;;;;;;14.20;41.72;100497.94;105799;1260;59588;-76
2023/03/20 11:07:51;;;;;;;;;;;;;;;14.23;41.29;100494.42;105593;1257;59832;-78
2023/03/20 11:10:18;;;;;;;8.90;4.20;;;;;;;14.28;41.10;100490.98;105830;1257;64715;-73
2023/03/20 11:12:46;;;;;;;6.60;3.60;;;;;;;14.36;41.53;100488.27;105872;1260;60008;-71
2023/03/20 11:15:21;;;;;;;9.40;3.60;;;;;;;14.46;40.35;100484.94;105773;1262;65337;-72
2023/03/20 11:17:56;;;;;;;9.80;3.70;;;;;;;14.45;40.23;100481.10;105850;1258;59640;-73
2023/03/20 11:20:35;;;;;;;17.40;10.60;;;;;;;14.54;40.41;100474.41;105933;1262;59679;-75
2023/03/20 11:23:07;;;;;;;11.20;4.20;;;;;;;14.68;40.42;100468.66;105826;1264;65737;-76
2023/03/20 11:25:37;;;;;;;4.80;3.30;;;;;;;14.85;39.95;100469.00;105702;1261;59736;-79
2023/03/20 11:28:25;;;;;;;6.60;2.60;;;;;;;15.00;39.51;100465.77;105973;1257;65630;-78
2023/03/20 11:31:01;;;;;;;6.30;2.90;;;;;;;15.21;38.69;100460.92;105737;1257;59746;-73
2023/03/20 11:33:44;;;;;;;5.50;2.80;;;;;;;15.31;37.97;100458.30;105803;1261;59715;-74
2023/03/20 11:36:24;;;;;;;5.70;2.60;;;;;;;15.38;37.83;100453.66;106025;1257;64843;-73
2023/03/20 11:39:14;;;;;;;5.60;2.80;;;;;;;15.44;36.89;100445.27;105811;1258;59904;-74
2023/03/20 11:41:49;;;;;;;4.40;2.70;;;;;;;15.32;36.25;100443.61;105112;1263;65329;-75
2023/03/20 11:44:30;;;;;;;7.50;3.40;;;;;;;15.22;36.11;100441.08;105520;1256;59614;-78
2023/03/20 11:47:04;;;;;;;6.40;3.40;;;;;;;15.22;36.38;100437.72;105176;1256;59528;-74
2023/03/20 11:49:44;;;;;;;8.20;3.50;;;;;;;15.31;36.96;100436.98;105370;1261;66102;-73
2023/03/20 11:52:12;;;;;;;7.90;3.60;;;;;;;15.46;37.28;100432.48;105306;1263;59566;-76
2023/03/20 11:54:45;;;;;;;9.00;3.90;;;;;;;15.62;36.83;100433.61;105760;1257;65835;-76
2023/03/20 11:57:34;;;;;;;9.50;4.00;;;;;;;15.59;36.02;100428.36;106010;1257;59653;-70
2023/03/20 12:00:10;;;;;;;6.60;3.60;;;;;;;15.46;36.77;100428.39;106134;1257;59673;-72
2023/03/20 12:02:41;;;;;;;9.60;3.60;;;;;;;15.48;36.75;100427.88;105972;1257;65970;-78
2023/03/20 12:05:35;;;;;;;6.70;3.50;;;;;;;15.47;36.41;100428.50;105903;1257;59808;-72
2023/03/20 12:08:12;;;;;;;6.60;3.50;;;;;;;15.54;36.82;100424.23;106038;1263;65722;-80
2023/03/20 12:10:41;;;;;;;5.70;4.00;;;;;;;15.77;36.83;100418.46;105531;1257;59858;-75
2023/03/20 12:13:41;;;;;;;8.50;4.20;;;;;;;15.97;36.65;100414.83;105817;1258;59657;-78
2023/03/20 12:16:13;;;;;;;8.70;5.20;;;;;;;16.11;36.78;100409.34;105938;1257;65921;-79
2023/03/20 12:18:59;;;;;;;8.60;5.20;;;;;;;16.21;36.76;100409.54;105279;1263;60164;-76
2023/03/20 12:21:32;;;;;;;11.60;5.20;;;;;;;16.24;36.91;100402.96;105352;1260;65620;-76
2023/03/20 12:24:08;;;;;;;11.70;5.80;;;;;;;16.18;37.21;100403.42;105540;1262;59603;-77
2023/03/20 12:26:41;;;;;;;7.40;4.80;;;;;;;16.27;37.19;100397.04;105737;1256;59742;-77
2023/03/20 12:29:31;;;;;;;9.50;5.00;;;;;;;16.41;37.10;100394.85;105975;1260;65764;-74
2023/03/20 12:32:16;;;;;;;9.10;5.00;;;;;;;16.57;36.52;100390.27;105867;1260;59613;-78
2023/03/20 12:34:46;;;;;;;7.80;4.70;;;;;;;16.63;36.58;100388.45;105777;1257;65378;-72
2023/03/20 12:37:13;;;;;;;9.00;5.10;;;;;;;16.73;36.62;100379.95;105715;1263;59590;-72
2023/03/20 12:39:53;;;;;;;9.20;4.80;;;;;;;16.86;36.10;100372.70;105736;1257;59631;-76
2023/03/20 12:42:26;;;;;;;8.70;4.90;;;;;;;16.89;35.61;100372.27;105584;1257;64930;-84
2023/03/20 12:45:03;;;;;;;;;;;;;;;16.80;35.89;100369.21;105639;1262;59835;-79
2023/03/20 12:47:49;;;;;;;10.80;4.60;;;;;;;16.89;36.15;100362.27;105702;1254;65698;-85
2023/03/20 12:50:35;;;;;;;8.80;4.60;;;;;;;17.14;36.12;100361.55;106029;1258;59493;-79
2023/03/20 12:53:03;;;;;;;8.50;4.80;;;;;;;17.28;34.97;100357.36;106218;1260;59733;-77
2023/03/20 12:55:30;;;;;;;10.40;4.90;;;;;;;17.25;35.32;100351.58;105460;1254;65658;-76
2023/03/20 12:58:42;;;;;;;9.70;5.00;;;;;;;17.32;35.38;100349.79;106458;1259;59771;-76
2023/03/20 13:01:20;;;;;;;12.90;5.00;;;;;;;17.29;34.74;100348.92;105727;1254;65628;-74
2023/03/20 13:03:53;;;;;;;9.00;4.70;;;;;;;17.10;34.71;100346.52;105263;1257;60657;-75
2023/03/20 13:06:38;;;;;;;9.40;5.60;;;;;;;16.89;34.57;100340.91;106159;1254;59627;-74
2023/03/20 13:09:34;;;;;;;7.00;4.50;;;;;;;16.52;34.88;100336.64;106250;1257;65787;-78
2023/03/20 13:12:14;;;;;;;10.10;5.10;;;;;;;16.24;35.49;100330.66;108149;1255;60937;-77
2023/03/20 13:15:00;;;;;;;9.40;4.90;;;;;;;16.24;35.74;100324.85;105883;1254;65523;-78
2023/03/20 13:17:53;;;;;;;9.80;5.10;;;;;;;16.37;35.41;100317.95;105726;1254;59711;-76
2023/03/20 13:20:28;;;;;;;8.90;5.30;;;;;;;16.42;35.40;100315.44;105759;1254;59714;-73
2023/03/20 13:23:03;;;;;;;6.80;4.70;;;;;;;16.59;35.40;100312.27;105487;1255;65715;-74
2023/03/20 13:25:46;;;;;;;12.30;5.00;;;;;;;16.77;35.09;100310.84;105625;1256;60244;-81
2023/03/20 13:28:13;;;;;;;10.20;5.90;;;;;;;16.94;34.84;100309.61;105494;1260;65278;-78
2023/03/20 13:30:43;;;;;;;8.00;4.60;;;;;;;17.08;34.54;100314.25;105679;1254;59726;-75
2023/03/20 13:33:34;;;;;;;7.50;4.80;;;;;;;17.22;34.20;100310.64;105949;1254;59621;-82
2023/03/20 13:36:11;;;;;;;7.20;4.80;;;;;;;17.32;34.05;100307.41;105503;1260;65860;-81
2023/03/20 13:38:44;;;;;;;11.90;5.50;;;;;;;17.35;33.90;100305.10;105571;1261;59915;-80
2023/03/20 13:41:11;;;;;;;11.90;4.80;;;;;;;17.28;33.76;100305.15;105742;1261;65624;-82
2023/03/20 13:43:40;;;;;;;8.20;4.60;;;;;;;17.23;33.52;100307.30;105638;1254;59682;-79
2023/03/20 13:46:17;;;;;;;10.10;5.40;;;;;;;17.07;33.64;100304.23;106057;1254;59721;-78
2023/03/20 13:48:44;;;;;;;7.80;4.90;;;;;;;16.81;34.21;100301.52;105731;1254;64781;-78
2023/03/20 13:51:29;;;;;;;7.00;4.90;;;;;;;16.72;34.61;100300.45;105828;1260;59665;-86
2023/03/20 13:54:15;;;;;;;8.60;4.80;;;;;;;16.81;34.56;100297.63;105631;1257;65428;-86
2023/03/20 13:57:06;;;;;;;14.80;5.10;;;;;;;16.89;33.90;100294.27;105623;1260;59621;-82
2023/03/20 13:59:35;;;;;;;11.20;4.90;;;;;;;16.83;34.01;100291.95;105814;1260;59650;-79
2023/03/20 14:02:16;;;;;;;13.00;5.30;;;;;;;16.95;33.69;100292.90;106212;1254;65889;-80
2023/03/20 14:04:43;;;;;;;10.00;5.20;;;;;;;16.94;33.55;100290.77;106081;1257;59868;-76
2023/03/20 14:07:32;;;;;;;10.30;4.80;;;;;;;16.90;33.41;100289.77;105590;1256;65639;-76
2023/03/20 14:10:20;;;;;;;10.40;4.90;;;;;;;16.91;33.50;100292.67;105513;1260;59550;-79
2023/03/20 14:12:55;;;;;;;8.60;4.50;;;;;;;16.92;33.07;100291.30;105500;1260;59729;-80
2023/03/20 14:15:25;;;;;;;11.10;4.50;;;;;;;16.82;32.67;100283.48;105408;1257;64628;-79
2023/03/20 14:17:52;;;;;;;9.10;4.70;;;;;;;16.62;32.95;100281.32;105839;1260;59946;-82
2023/03/20 14:20:36;;;;;;;11.40;4.80;;;;;;;16.50;33.39;100280.95;105860;1256;65105;-82
2023/03/20 14:23:34;;;;;;;8.40;4.70;;;;;;;16.52;33.74;100278.83;105874;1256;60447;-75
2023/03/20 14:26:28;;;;;;;10.60;4.90;;;;;;;16.55;33.67;100278.30;105785;1255;60533;-73
2023/03/20 14:28:59;;;;;;;;;;;;;;;16.51;33.41;100279.98;105863;1258;66777;-78
2023/03/20 14:31:31;;;;;;;10.60;4.90;;;;;;;16.35;33.51;100280.44;105692;1259;60504;-75
2023/03/20 14:34:10;;;;;;;10.30;4.60;;;;;;;16.22;33.56;100280.19;105716;1256;65569;-86
2023/03/20 14:36:49;;;;;;;12.10;5.20;;;;;;;16.01;33.99;100277.80;105725;1260;60325;-77
2023/03/20 14:39:23;;;;;;;8.90;5.60;;;;;;;15.77;34.23;100277.34;105840;1254;60424;-81
2023/03/20 14:41:56;;;;;;;7.50;5.40;;;;;;;15.54;34.79;100272.77;105687;1254;68241;-84
2023/03/20 14:44:28;;;;;;;9.50;5.80;;;;;;;15.41;35.09;100268.15;105682;1259;60603;-81
2023/03/20 14:47:03;;;;;;;9.70;5.70;;;;;;;15.39;35.36;100265.27;105597;1257;65402;-78
2023/03/20 14:50:07;;;;;;;15.20;5.90;;;;;;;15.43;35.61;100266.71;105927;1254;60422;-70
2023/03/20 14:52:43;;;;;;;12.60;6.00;;;;;;;15.42;35.65;100266.81;105399;1264;60547;-74
2023/03/20 14:55:34;;;;;;;12.40;6.20;;;;;;;15.50;35.53;100263.04;105760;1260;66676;-76
2023/03/20 14:58:02;;;;;;;12.00;5.80;;;;;;;15.50;35.46;100263.02;105824;1254;60440;-78
2023/03/20 15:00:33;;;;;;;14.70;6.20;;;;;;;15.47;35.45;100261.70;105733;1257;65950;-80
2023/03/20 15:03:08;;;;;;;12.10;5.60;;;;;;;15.51;35.12;100263.58;105575;1260;60306;-80
2023/03/20 15:05:36;;;;;;;11.40;5.50;;;;;;;15.45;35.07;100263.35;105429;1262;60344;-82
2023/03/20 15:08:07;;;;;;;15.10;5.70;;;;;;;15.27;35.18;100261.63;105588;1257;65694;-78
2023/03/20 15:10:36;;;;;;;14.80;5.60;;;;;;;15.10;35.36;100260.48;105504;1256;62035;-81
2023/03/20 15:13:05;;;;;;;12.90;5.50;;;;;;;14.95;35.56;100258.59;105592;1254;65408;-79
2023/03/20 15:15:33;;;;;;;13.50;5.80;;;;;;;14.77;35.88;100264.32;105652;1259;60350;-77
2023/03/20 15:18:06;;;;;;;11.90;5.60;;;;;;;14.58;36.12;100265.27;105871;1257;60594;-73
2023/03/20 15:20:34;;;;;;;22.40;13.80;;;;;;;14.42;36.43;100258.35;105870;1256;66942;-80
2023/03/20 15:23:02;;;;;;;13.80;7.10;;;;;;;14.31;36.54;100257.98;105646;1255;60431;-75
2023/03/20 15:25:38;;;;;;;17.40;7.20;;;;;;;14.20;36.65;100256.71;105799;1254;65516;-76
2023/03/20 15:28:14;;;;;;;15.30;6.10;;;;;;;14.05;36.75;100257.86;105676;1262;60774;-77
2023/03/20 15:30:47;;;;;;;11.10;5.80;;;;;;;13.85;37.07;100256.71;105628;1257;60414;-82
2023/03/20 15:33:24;;;;;;;10.20;5.60;;;;;;;13.67;37.36;100253.81;105639;1260;66585;-78
2023/03/20 15:35:52;;;;;;;11.70;6.20;;;;;;;13.49;37.62;100254.98;106771;1261;60412;-75
2023/03/20 15:38:19;;;;;;;12.20;7.70;;;;;;;13.32;37.94;100252.39;105920;1254;65671;-77
2023/03/20 15:40:47;;;;;;;12.00;6.70;;;;;;;13.14;38.34;100254.69;105872;1259;60446;-75
2023/03/20 15:43:23;;;;;;;17.50;8.70;;;;;;;12.98;38.81;100254.20;105816;1254;60468;-77
2023/03/20 15:45:53;;;;;;;11.40;6.70;;;;;;;12.87;39.14;100252.72;105947;1259;66782;-75
2023/03/20 15:48:31;;;;;;;12.40;6.70;;;;;;;12.79;39.34;100254.52;105689;1263;61677;-76
2023/03/20 15:51:03;;;;;;;15.70;6.40;;;;;;;12.71;39.53;100252.66;105849;1257;64238;-76
2023/03/20 15:53:36;;;;;;;16.70;7.00;;;;;;;12.58;39.94;100258.21;105708;1262;60562;-78
2023/03/20 15:56:04;;;;;;;12.90;7.30;;;;;;;12.50;40.16;100259.14;105620;1256;60794;-77
2023/03/20 15:58:44;;;;;;;13.90;7.70;;;;;;;12.41;40.32;100253.25;105812;1254;66869;-77
2023/03/20 16:01:16;;;;;;;30.80;19.90;;;;;;;12.34;40.47;100251.88;105770;1254;61035;-81
2023/03/20 16:03:43;;;;;;;18.30;10.40;;;;;;;12.29;40.61;100251.62;105801;1257;65672;-78
2023/03/20 16:06:11;;;;;;;15.40;9.30;;;;;;;12.20;40.72;100248.56;105600;1254;60295;-76
2023/03/20 16:08:38;;;;;;;17.40;9.30;;;;;;;12.10;41.00;100252.44;106100;1254;60424;-75
2023/03/20 16:11:12;;;;;;;17.50;8.80;;;;;;;12.00;41.14;100251.70;105718;1254;66906;-75
2023/03/20 16:13:41;;;;;;;18.20;8.60;;;;;;;11.91;41.24;100252.70;105823;1254;60488;-72
2023/03/20 16:16:12;;;;;;;15.90;9.00;;;;;;;11.83;41.27;100255.54;105874;1260;65660;-73
2023/03/20 16:18:47;;;;;;;18.20;9.80;;;;;;;11.73;41.58;100255.63;105637;1253;60520;-75
2023/03/20 16:21:20;;;;;;;15.70;9.80;;;;;;;11.62;41.62;100253.04;105829;1251;60344;-75
2023/03/20 16:23:50;;;;;;;19.30;10.20;;;;;;;11.53;41.82;100252.11;105949;1251;65583;-74
2023/03/20 16:26:19;;;;;;;21.10;11.20;;;;;;;11.43;42.05;100250.25;106281;1255;60465;-74
2023/03/20 16:28:58;;;;;;;22.30;14.70;;;;;;;11.31;42.21;100252.83;105592;1254;65093;-70
2023/03/20 16:31:33;;;;;;;32.00;14.60;;;;;;;11.18;42.45;100254.29;105692;1257;60441;-71
2023/03/20 16:34:06;;;;;;;25.70;14.10;;;;;;;11.06;42.88;100257.41;105802;1251;60643;-69
2023/03/20 16:36:35;;;;;;;26.80;13.30;;;;;;;10.94;43.10;100255.59;106520;1256;66854;-73
2023/03/20 16:39:06;;;;;;;28.00;13.30;;;;;;;10.79;43.22;100252.98;105889;1258;60303;-68
2023/03/20 16:41:39;;;;;;;29.80;15.90;;;;;;;10.64;43.39;100258.48;105785;1251;65641;-71
2023/03/20 16:44:07;;;;;;;30.80;17.10;;;;;;;10.52;43.59;100260.61;105733;1259;60529;-72
2023/03/20 16:46:34;;;;;;;35.70;17.50;;;;;;;10.44;43.69;100261.29;105925;1256;60387;-71
2023/03/20 16:49:33;;;;;;;41.00;23.00;;;;;;;10.37;43.81;100259.79;105717;1254;65764;-72
2023/03/20 16:52:02;;;;;;;42.90;24.90;;;;;;;10.25;44.00;100261.39;105889;1257;60585;-72
2023/03/20 16:54:30;;;;;;;40.90;21.50;;;;;;;10.12;44.10;100262.80;105857;1253;73484;-70
2023/03/20 16:56:57;;;;;;;38.30;21.70;;;;;;;10.01;44.31;100262.97;105348;1260;60508;-70
2023/03/20 16:59:24;;;;;;;37.40;21.80;;;;;;;9.92;44.47;100259.77;105986;1256;60427;-74
2023/03/20 17:01:53;;;;;;;39.00;20.30;;;;;;;9.85;44.62;100263.52;105635;1257;66705;-76
2023/03/20 17:04:22;;;;;;;32.10;18.80;;;;;;;9.77;44.62;100267.50;105520;1259;60453;-75
2023/03/20 17:06:57;;;;;;;33.30;16.40;;;;;;;9.65;44.71;100269.27;105458;1251;65560;-75
2023/03/20 17:09:25;;;;;;;;;;;;;;;9.58;44.98;100268.64;105865;1259;60524;-76
2023/03/20 17:12:05;;;;;;;30.40;15.40;;;;;;;9.52;45.11;100264.19;106351;1251;59154;-78
2023/03/20 17:14:33;;;;;;;29.30;14.70;;;;;;;9.46;45.22;100265.83;106348;1251;65580;-73
2023/03/20 17:17:00;;;;;;;29.30;15.80;;;;;;;9.43;45.24;100267.29;106562;1251;60469;-70
2023/03/20 17:19:27;;;;;;;30.10;17.40;;;;;;;9.40;45.39;100264.68;105680;1251;65610;-74
2023/03/20 17:21:56;;;;;;;37.30;19.90;;;;;;;9.35;45.39;100264.23;105628;1252;60453;-73
2023/03/20 17:24:24;;;;;;;38.30;20.40;;;;;;;9.31;45.53;100265.93;105891;1251;60453;-70
2023/03/20 17:26:53;;;;;;;38.60;20.50;;;;;;;9.26;45.66;100267.16;105639;1256;66909;-72
2023/03/20 17:29:20;;;;;;;41.50;20.60;;;;;;;9.22;45.74;100268.58;105548;1256;60459;-74
2023/03/20 17:31:47;;;;;;;37.10;19.70;;;;;;;9.18;45.77;100272.75;105679;1257;65378;-73
2023/03/20 17:34:14;;;;;;;35.30;20.60;;;;;;;9.13;45.90;100278.86;105816;1254;60574;-73
2023/03/20 17:36:42;;;;;;;35.90;20.50;;;;;;;9.07;46.01;100276.48;105569;1251;60812;-74
2023/03/20 17:39:19;;;;;;;37.80;21.70;;;;;;;9.04;46.10;100277.96;105308;1258;66837;-74
2023/03/20 17:41:47;;;;;;;35.40;20.40;;;;;;;9.00;46.17;100274.75;105592;1251;60344;-74
2023/03/20 17:44:14;;;;;;;48.70;25.20;;;;;;;8.97;46.34;100271.96;105590;1251;65574;-74
2023/03/20 17:47:01;;;;;;;37.90;19.60;;;;;;;8.94;46.19;100271.20;105541;1256;60478;-76
2023/03/20 17:49:32;;;;;;;37.30;19.10;;;;;;;8.89;46.18;100270.66;106090;1251;61099;-74
2023/03/20 17:51:59;;;;;;;36.00;19.10;;;;;;;8.87;46.20;100264.84;106218;1256;66559;-74
2023/03/20 17:54:31;;;;;;;37.60;18.70;;;;;;;8.84;46.24;100264.57;106716;1256;60431;-81
2023/03/20 17:56:59;;;;;;;36.50;18.70;;;;;;;8.82;46.22;100265.96;106472;1251;65543;-76
2023/03/20 17:59:29;;;;;;;32.50;18.90;;;;;;;8.82;46.23;100260.50;106723;1258;60540;-70
2023/03/20 18:01:57;;;;;;;35.00;19.60;;;;;;;8.83;46.21;100255.11;105670;1254;60296;-72
2023/03/20 18:04:24;;;;;;;33.70;19.90;;;;;;;8.83;46.25;100252.86;105800;1253;66710;-72
2023/03/20 18:06:56;;;;;;;37.30;18.80;;;;;;;8.82;46.31;100250.45;105772;1251;60462;-72
2023/03/20 18:09:29;;;;;;;37.70;18.30;;;;;;;8.84;46.13;100248.73;105784;1251;65381;-71
2023/03/20 18:11:56;;;;;;;35.80;22.20;;;;;;;8.84;46.09;100249.23;105839;1255;60431;-71
2023/03/20 18:14:25;;;;;;;36.90;20.40;;;;;;;8.84;46.02;100251.69;105822;1257;60530;-72
2023/03/20 18:16:52;;;;;;;29.80;16.80;;;;;;;8.82;45.89;100249.42;105191;1254;66571;-73
2023/03/20 18:19:27;;;;;;;30.90;18.30;;;;;;;8.81;45.85;100250.95;105921;1254;60371;-72
2023/03/20 18:21:55;;;;;;;30.90;18.30;;;;;;;8.79;45.78;100254.23;105520;1259;65402;-73
2023/03/20 18:24:22;;;;;;;44.80;23.20;;;;;;;8.77;45.80;100256.61;105769;1251;60431;-73
2023/03/20 18:26:50;;;;;;;39.00;19.00;;;;;;;8.75;45.83;100257.27;105678;1256;60841;-74
2023/03/20 18:29:17;;;;;;;44.30;25.40;;;;;;;8.75;45.69;100260.44;105351;1260;66790;-71
2023/03/20 18:31:45;;;;;;;36.50;21.00;;;;;;;8.74;45.45;100260.94;105559;1256;60521;-71
2023/03/20 18:34:15;;;;;;;33.90;18.40;;;;;;;8.71;45.42;100265.20;105859;1252;65668;-71
2023/03/20 18:36:44;;;;;;;39.30;18.60;;;;;;;8.69;45.29;100267.24;105696;1256;60440;-70
2023/03/20 18:39:22;;;;;;;45.90;26.40;;;;;;;8.67;45.35;100260.70;105834;1251;60371;-73
2023/03/20 18:41:49;;;;;;;40.60;23.00;;;;;;;8.67;45.29;100258.27;105701;1256;66581;-71
2023/03/20 18:44:17;;;;;;;29.00;16.50;;;;;;;8.65;45.25;100255.05;105681;1251;60459;-71
2023/03/20 18:46:44;;;;;;;32.70;18.70;;;;;;;8.60;44.92;100254.73;105657;1251;64376;-71
2023/03/20 18:49:17;;;;;;;30.20;17.50;;;;;;;8.54;44.45;100249.57;105750;1251;60369;-71
2023/03/20 18:51:45;;;;;;;25.60;13.70;;;;;;;8.49;44.38;100252.02;105765;1254;60428;-70
2023/03/20 18:54:12;;;;;;;24.60;14.10;;;;;;;8.46;44.52;100250.09;105347;1259;67550;-73
2023/03/20 18:56:43;;;;;;;33.80;17.00;;;;;;;8.44;44.69;100253.25;105553;1259;60459;-72
2023/03/20 18:59:11;;;;;;;26.60;15.40;;;;;;;8.40;44.92;100258.44;105793;1251;65338;-70
2023/03/20 19:01:38;;;;;;;25.60;12.60;;;;;;;8.35;45.17;100256.36;105825;1254;60313;-72
2023/03/20 19:04:22;;;;;;;20.80;12.50;;;;;;;8.30;45.16;100256.19;105654;1251;60434;-74
2023/03/20 19:06:49;;;;;;;21.00;11.60;;;;;;;8.24;44.94;100256.98;105706;1256;66794;-78
2023/03/20 19:09:17;;;;;;;20.60;12.10;;;;;;;8.21;44.93;100258.23;105755;1256;60440;-76
2023/03/20 19:11:46;;;;;;;23.40;13.40;;;;;;;8.19;44.79;100255.37;105828;1251;64389;-74
2023/03/20 19:14:13;;;;;;;23.10;12.30;;;;;;;8.17;44.86;100254.29;105867;1255;61232;-76
2023/03/20 19:16:41;;;;;;;18.70;11.70;;;;;;;8.14;45.26;100253.63;106288;1251;60424;-76
2023/03/20 19:19:10;;;;;;;23.20;12.30;;;;;;;8.11;45.63;100253.48;105601;1254;66449;-75
2023/03/20 19:21:38;;;;;;;26.90;14.00;;;;;;;8.08;46.01;100254.92;105801;1256;60434;-74
2023/03/20 19:24:07;;;;;;;28.90;14.00;;;;;;;8.05;46.47;100250.41;105834;1254;65544;-76
2023/03/20 19:26:36;;;;;;;28.40;15.10;;;;;;;8.02;46.76;100248.50;105490;1256;60348;-74
2023/03/20 19:29:08;;;;;;;29.60;16.70;;;;;;;7.99;46.96;100249.27;105558;1252;60441;-75
2023/03/20 19:31:37;;;;;;;32.20;17.30;;;;;;;7.96;47.30;100248.08;105550;1252;66713;-76
2023/03/20 19:34:06;;;;;;;32.00;17.60;;;;;;;7.94;47.41;100245.61;105719;1257;60536;-76
2023/03/20 19:36:35;;;;;;;32.60;18.20;;;;;;;7.91;47.78;100250.16;106170;1256;64313;-76
2023/03/20 19:39:05;;;;;;;35.30;20.90;;;;;;;7.89;48.06;100252.61;105984;1256;60386;-76
2023/03/20 19:41:33;;;;;;;36.40;20.80;;;;;;;7.86;48.37;100248.27;105916;1253;60504;-78
2023/03/20 19:44:02;;;;;;;35.20;21.60;;;;;;;7.83;48.55;100248.30;105765;1252;65297;-80
2023/03/20 19:46:31;;;;;;;33.30;20.40;;;;;;;7.80;48.63;100241.81;106124;1256;60436;-75
2023/03/20 19:49:19;;;;;;;37.30;20.00;;;;;;;7.79;48.53;100239.84;105580;1254;64566;-77
2023/03/20 19:51:47;;;;;;;32.90;20.00;;;;;;;7.76;48.57;100238.41;105646;1251;60638;-76
2023/03/20 19:54:15;;;;;;;39.30;21.10;;;;;;;7.74;48.77;100237.36;106163;1251;61010;-76
2023/03/20 19:56:46;;;;;;;44.10;21.90;;;;;;;7.70;48.93;100236.77;106093;1255;66764;-75
2023/03/20 19:59:15;;;;;;;39.90;20.90;;;;;;;7.66;48.93;100231.22;105688;1256;60315;-77
2023/03/20 20:01:44;;;;;;;37.30;19.10;;;;;;;7.65;48.96;100231.86;106083;1251;65534;-77
2023/03/20 20:04:12;;;;;;;43.00;20.00;;;;;;;7.65;48.89;100232.58;106149;1251;60376;-76
2023/03/20 20:06:40;;;;;;;38.00;20.50;;;;;;;7.66;48.89;100232.52;105996;1254;60453;-77
2023/03/20 20:09:08;;;;;;;38.90;21.40;;;;;;;7.66;49.14;100231.45;105777;1256;66632;-77
2023/03/20 20:11:37;;;;;;;57.50;23.10;;;;;;;7.65;49.23;100237.27;105799;1256;60489;-76
2023/03/20 20:14:05;;;;;;;28.40;14.90;;;;;;;7.63;49.24;100244.78;105981;1251;65487;-77
2023/03/20 20:16:38;;;;;;;32.50;17.60;;;;;;;7.58;49.05;100249.49;106176;1252;60405;-76
2023/03/20 20:19:06;;;;;;;35.90;21.00;;;;;;;7.54;49.53;100254.02;105999;1256;60380;-75
2023/03/20 20:21:34;;;;;;;32.50;17.50;;;;;;;7.49;49.95;100251.73;105738;1254;66671;-77
2023/03/20 20:24:22;;;;;;;29.00;16.90;;;;;;;7.45;49.75;100246.59;105747;1251;60546;-74
2023/03/20 20:26:55;;;;;;;30.80;16.10;;;;;;;7.40;49.84;100243.35;105607;1252;64583;-76
2023/03/20 20:29:45;;;;;;;26.10;15.40;;;;;;;7.37;49.84;100232.52;105760;1256;60296;-78
2023/03/20 20:32:12;;;;;;;27.30;15.40;;;;;;;7.37;49.88;100229.19;105625;1253;60345;-76
2023/03/20 20:34:40;;;;;;;27.00;15.40;;;;;;;7.37;49.95;100224.14;105597;1251;66652;-75
2023/03/20 20:37:28;;;;;;;31.00;16.20;;;;;;;7.34;50.13;100222.95;105590;1256;60564;-75
2023/03/20 20:40:17;;;;;;;29.70;16.50;;;;;;;7.32;50.46;100219.81;105472;1258;64546;-77
2023/03/20 20:42:45;;;;;;;30.70;16.30;;;;;;;7.27;50.71;100221.52;105801;1251;60453;-76
2023/03/20 20:45:14;;;;;;;27.20;15.70;;;;;;;7.23;51.02;100216.02;105745;1255;60438;-77
2023/03/20 20:47:43;;;;;;;27.10;14.70;;;;;;;7.18;51.24;100213.35;105855;1251;66865;-76
2023/03/20 20:50:12;;;;;;;23.90;15.10;;;;;;;7.14;51.31;100213.99;105525;1256;60445;-76
2023/03/20 20:52:40;;;;;;;22.80;13.60;;;;;;;7.10;51.38;100208.80;105681;1256;64409;-76
2023/03/20 20:55:10;;;;;;;22.40;14.00;;;;;;;7.08;51.43;100201.13;105761;1251;60545;-77
2023/03/20 20:57:52;;;;;;;27.00;14.50;;;;;;;7.05;51.52;100197.82;105723;1251;60401;-76
2023/03/20 21:00:22;;;;;;;25.10;13.80;;;;;;;7.02;51.42;100200.45;105693;1251;65485;-77
2023/03/20 21:02:48;;;;;;;22.80;13.70;;;;;;;7.00;51.53;100203.40;105620;1259;60450;-76
2023/03/20 21:05:16;;;;;;;23.30;14.10;;;;;;;6.98;51.84;100202.64;105653;1251;65355;-76
2023/03/20 21:07:45;;;;;;;23.00;14.30;;;;;;;6.95;51.99;100198.11;105659;1251;60427;-77
2023/03/20 21:10:15;;;;;;;23.10;14.20;;;;;;;6.93;52.04;100196.66;105536;1251;60425;-77
2023/03/20 21:12:42;;;;;;;23.80;14.00;;;;;;;6.93;51.96;100189.71;105472;1257;65563;-76
2023/03/20 21:15:26;;;;;;;23.90;14.10;;;;;;;6.92;51.81;100193.04;105579;1251;60433;-76
2023/03/20 21:17:53;;;;;;;21.90;13.90;;;;;;;6.93;51.79;100191.12;105926;1251;65346;-76
2023/03/20 21:20:30;;;;;;;23.60;13.70;;;;;;;6.89;51.88;100190.61;105946;1253;60502;-76
2023/03/20 21:22:57;;;;;;;22.40;13.50;;;;;;;6.86;51.82;100188.38;105569;1254;60456;-76
2023/03/20 21:25:26;;;;;;;23.40;14.40;;;;;;;6.82;51.85;100188.99;105628;1256;66337;-77
2023/03/20 21:28:07;;;;;;;24.70;13.80;;;;;;;6.77;51.96;100185.52;105988;1257;60361;-77
2023/03/20 21:30:37;;;;;;;23.50;14.20;;;;;;;6.74;51.97;100185.73;105579;1251;65581;-77
2023/03/20 21:33:20;;;;;;;24.20;14.80;;;;;;;6.69;52.02;100181.48;105587;1252;60596;-77
2023/03/20 21:35:48;;;;;;;29.20;15.50;;;;;;;6.64;52.08;100178.47;105766;1252;60411;-75
2023/03/20 21:38:18;;;;;;;26.50;15.00;;;;;;;6.61;51.92;100173.98;105501;1256;65529;-76